IFR Flight & SIM Center™

402 Wright Bros. Dr. #202 Georgetown, Texas 78628

Select Page

Instructors & Staff

IFR Flight & SIM Center™

Instructors & Staff - IFR Flight & SIM Center™

Instructors & Staff

With decades of experience training pilots, IFR Flight & SIM Center™ continues to provide high level training with seasoned and experienced instructors & staff.

Instructors & Staff - Mark Wilson - IFR Flight & SIM Center™

Mark Wilson

Mark founded IFR Flight Training School™ in 1989, now IFR Flight & SIM Center™. Mark has been an instructor since 1969 and was an Army aviator in Vietnam where he flew the Grumman OV-1 Mohawk.

Instructors & Staff -  Dwight Vance - IFR Flight & SIM Center™

Dwight Vance

Dwight has been flying since 1967 and holds ATP MEL, Comm/Inst SEL, Comm Glider, Gold Seal CFI-SEL, MEL Instrument, and Glider ratings.

Instructors & Staff -  Patrick Burns - IFR Flight & SIM Center™

Patrick Burns

Patrick began flying in 1969. He has trained with the US Air Force and flew for Southwest Airlines. Patrick holds ATP, CFII, MEI, and IGI ratings.

KGTU METAR
Georgetown, TX

KGTU 241803Z 14008KT 10SM SCT028 SCT037 31/21 A2992 RMK AO2

 

 

 

Look No Further. Get Started Today!

Subscribe To Our Newsletter

Join our mailing list to receive the latest news and updates from our team at IFR Flight & SIM Center™.

You can unsubscribe at any time.

You have Successfully Subscribed!